<?xml version="1.0" encoding="utf-8"?>
<gpx xmlns:xsi="http://www.w3.org/2001/XMLSchema-instance" xmlns:xsd="http://www.w3.org/2001/XMLSchema" version="1.1" creator="Shapelink.com" xmlns="http://www.topografix.com/GPX/1/1" xmlns:gpxtpx="http://www.garmin.com/xmlschemas/TrackPointExtension/v1">
  <metadata>
    <name>Kører 5.43 km, 2020-01-25</name>
    <desc></desc>
    <author><name>Per Rooth</name></author> 
    <time>2020-01-25T07:20:45Z</time>
  </metadata>
  <trk>
    <name>Kører 5.43 km, 2020-01-25</name>
    <trkseg>
      <trkpt lat="56.873267864268" lon="14.792804429262">
        <ele>177.4</ele>
        <time>2020-01-25T07:20:45Z</time>
      </trkpt>
      <trkpt lat="56.873341792626" lon="14.792853379558">
        <ele>178.6</ele>
        <time>2020-01-25T07:20:49Z</time>
      </trkpt>
      <trkpt lat="56.873524266589" lon="14.792931415047">
        <ele>178</ele>
        <time>2020-01-25T07:20:56Z</time>
      </trkpt>
      <trkpt lat="56.873686540173" lon="14.793080277591">
        <ele>177.8</ele>
        <time>2020-01-25T07:21:03Z</time>
      </trkpt>
      <trkpt lat="56.873827104636" lon="14.793297033525">
        <ele>177.6</ele>
        <time>2020-01-25T07:21:09Z</time>
      </trkpt>
      <trkpt lat="56.873890555619" lon="14.793408345157">
        <ele>177.6</ele>
        <time>2020-01-25T07:21:12Z</time>
      </trkpt>
      <trkpt lat="56.87402206763" lon="14.79364781604">
        <ele>177.8</ele>
        <time>2020-01-25T07:21:19Z</time>
      </trkpt>
      <trkpt lat="56.874053164479" lon="14.793727108814">
        <ele>177.4</ele>
        <time>2020-01-25T07:21:21Z</time>
      </trkpt>
      <trkpt lat="56.874157770591" lon="14.793993904691">
        <ele>178.4</ele>
        <time>2020-01-25T07:21:28Z</time>
      </trkpt>
      <trkpt lat="56.87426011359" lon="14.794270758848">
        <ele>177.6</ele>
        <time>2020-01-25T07:21:35Z</time>
      </trkpt>
      <trkpt lat="56.874379471846" lon="14.794572004334">
        <ele>177.4</ele>
        <time>2020-01-25T07:21:42Z</time>
      </trkpt>
      <trkpt lat="56.87452079068" lon="14.794819018927">
        <ele>176.6</ele>
        <time>2020-01-25T07:21:49Z</time>
      </trkpt>
      <trkpt lat="56.874543924724" lon="14.794851121604">
        <ele>176.4</ele>
        <time>2020-01-25T07:21:50Z</time>
      </trkpt>
      <trkpt lat="56.874673760355" lon="14.795043989123">
        <ele>175.6</ele>
        <time>2020-01-25T07:21:56Z</time>
      </trkpt>
      <trkpt lat="56.874800243226" lon="14.795239706488">
        <ele>175.2</ele>
        <time>2020-01-25T07:22:02Z</time>
      </trkpt>
      <trkpt lat="56.874919601482" lon="14.795497282275">
        <ele>175.2</ele>
        <time>2020-01-25T07:22:09Z</time>
      </trkpt>
      <trkpt lat="56.875038540643" lon="14.795792492793">
        <ele>174</ele>
        <time>2020-01-25T07:22:17Z</time>
      </trkpt>
      <trkpt lat="56.875134848674" lon="14.796013355858">
        <ele>173</ele>
        <time>2020-01-25T07:22:22Z</time>
      </trkpt>
      <trkpt lat="56.87515446232" lon="14.796060378317">
        <ele>172.8</ele>
        <time>2020-01-25T07:22:23Z</time>
      </trkpt>
      <trkpt lat="56.875189247205" lon="14.796351481704">
        <ele>172</ele>
        <time>2020-01-25T07:22:29Z</time>
      </trkpt>
      <trkpt lat="56.875170723206" lon="14.796537308427">
        <ele>170.6</ele>
        <time>2020-01-25T07:22:33Z</time>
      </trkpt>
      <trkpt lat="56.875158317994" lon="14.796687595894">
        <ele>169.6</ele>
        <time>2020-01-25T07:22:36Z</time>
      </trkpt>
      <trkpt lat="56.87512931662" lon="14.796991523588">
        <ele>168.6</ele>
        <time>2020-01-25T07:22:42Z</time>
      </trkpt>
      <trkpt lat="56.875122862557" lon="14.797038629866">
        <ele>168.4</ele>
        <time>2020-01-25T07:22:43Z</time>
      </trkpt>
      <trkpt lat="56.875074247537" lon="14.797393770969">
        <ele>168.6</ele>
        <time>2020-01-25T07:22:50Z</time>
      </trkpt>
      <trkpt lat="56.875033846779" lon="14.797722425268">
        <ele>168.4</ele>
        <time>2020-01-25T07:22:56Z</time>
      </trkpt>
      <trkpt lat="56.874982968646" lon="14.798039428726">
        <ele>168.2</ele>
        <time>2020-01-25T07:23:02Z</time>
      </trkpt>
      <trkpt lat="56.87497341328" lon="14.798086786461">
        <ele>168.2</ele>
        <time>2020-01-25T07:23:03Z</time>
      </trkpt>
      <trkpt lat="56.874905268433" lon="14.798393899277">
        <ele>167.8</ele>
        <time>2020-01-25T07:23:10Z</time>
      </trkpt>
      <trkpt lat="56.874926726097" lon="14.798721296291">
        <ele>168</ele>
        <time>2020-01-25T07:23:17Z</time>
      </trkpt>
      <trkpt lat="56.874940220956" lon="14.799069815693">
        <ele>168.4</ele>
        <time>2020-01-25T07:23:24Z</time>
      </trkpt>
      <trkpt lat="56.874903089139" lon="14.799348178592">
        <ele>168.2</ele>
        <time>2020-01-25T07:23:30Z</time>
      </trkpt>
      <trkpt lat="56.874737546614" lon="14.799623188731">
        <ele>168.8</ele>
        <time>2020-01-25T07:23:37Z</time>
      </trkpt>
      <trkpt lat="56.874763781961" lon="14.799937007067">
        <ele>168.8</ele>
        <time>2020-01-25T07:23:43Z</time>
      </trkpt>
      <trkpt lat="56.874703683738" lon="14.800260045493">
        <ele>168.8</ele>
        <time>2020-01-25T07:23:51Z</time>
      </trkpt>
      <trkpt lat="56.874796471371" lon="14.80046649169">
        <ele>169</ele>
        <time>2020-01-25T07:23:55Z</time>
      </trkpt>
      <trkpt lat="56.874777947372" lon="14.800671764421">
        <ele>169.6</ele>
        <time>2020-01-25T07:23:59Z</time>
      </trkpt>
      <trkpt lat="56.874716005131" lon="14.801010812276">
        <ele>169.2</ele>
        <time>2020-01-25T07:24:06Z</time>
      </trkpt>
      <trkpt lat="56.874694547467" lon="14.801098822226">
        <ele>169.6</ele>
        <time>2020-01-25T07:24:08Z</time>
      </trkpt>
      <trkpt lat="56.874644507524" lon="14.80144968856">
        <ele>170.6</ele>
        <time>2020-01-25T07:24:16Z</time>
      </trkpt>
      <trkpt lat="56.874547109846" lon="14.80174724601">
        <ele>171.6</ele>
        <time>2020-01-25T07:24:23Z</time>
      </trkpt>
      <trkpt lat="56.874539817593" lon="14.80179502284">
        <ele>171.8</ele>
        <time>2020-01-25T07:24:24Z</time>
      </trkpt>
      <trkpt lat="56.87452330525" lon="14.801938018054">
        <ele>172.2</ele>
        <time>2020-01-25T07:24:27Z</time>
      </trkpt>
      <trkpt lat="56.87447888118" lon="14.802066344943">
        <ele>173</ele>
        <time>2020-01-25T07:24:30Z</time>
      </trkpt>
      <trkpt lat="56.874470834556" lon="14.802436824923">
        <ele>174</ele>
        <time>2020-01-25T07:24:38Z</time>
      </trkpt>
      <trkpt lat="56.874457591154" lon="14.80249239692">
        <ele>174</ele>
        <time>2020-01-25T07:24:39Z</time>
      </trkpt>
      <trkpt lat="56.874510648581" lon="14.80276145591">
        <ele>174.4</ele>
        <time>2020-01-25T07:24:44Z</time>
      </trkpt>
      <trkpt lat="56.874456082412" lon="14.80287209699">
        <ele>174.4</ele>
        <time>2020-01-25T07:24:47Z</time>
      </trkpt>
      <trkpt lat="56.874463458484" lon="14.802966644822">
        <ele>174.4</ele>
        <time>2020-01-25T07:24:49Z</time>
      </trkpt>
      <trkpt lat="56.874488436546" lon="14.803121207058">
        <ele>175.4</ele>
        <time>2020-01-25T07:24:52Z</time>
      </trkpt>
      <trkpt lat="56.87449815955" lon="14.803498057282">
        <ele>175.8</ele>
        <time>2020-01-25T07:25:00Z</time>
      </trkpt>
      <trkpt lat="56.874523891983" lon="14.803860406819">
        <ele>175.8</ele>
        <time>2020-01-25T07:25:08Z</time>
      </trkpt>
      <trkpt lat="56.874529591675" lon="14.803963755646">
        <ele>176</ele>
        <time>2020-01-25T07:25:10Z</time>
      </trkpt>
      <trkpt lat="56.874484580872" lon="14.804305653347">
        <ele>175.4</ele>
        <time>2020-01-25T07:25:17Z</time>
      </trkpt>
      <trkpt lat="56.874448035788" lon="14.804629110868">
        <ele>175.6</ele>
        <time>2020-01-25T07:25:24Z</time>
      </trkpt>
      <trkpt lat="56.874633191959" lon="14.804789791891">
        <ele>175</ele>
        <time>2020-01-25T07:25:30Z</time>
      </trkpt>
      <trkpt lat="56.874807703117" lon="14.804978887555">
        <ele>175.2</ele>
        <time>2020-01-25T07:25:35Z</time>
      </trkpt>
      <trkpt lat="56.874974167651" lon="14.805127247185">
        <ele>175.6</ele>
        <time>2020-01-25T07:25:41Z</time>
      </trkpt>
      <trkpt lat="56.875159659098" lon="14.805214586583">
        <ele>176</ele>
        <time>2020-01-25T07:25:48Z</time>
      </trkpt>
      <trkpt lat="56.875223277719" lon="14.805232691487">
        <ele>176.4</ele>
        <time>2020-01-25T07:25:51Z</time>
      </trkpt>
      <trkpt lat="56.875357723395" lon="14.805248952373">
        <ele>176.6</ele>
        <time>2020-01-25T07:25:57Z</time>
      </trkpt>
      <trkpt lat="56.875484960637" lon="14.805339225436">
        <ele>176.8</ele>
        <time>2020-01-25T07:26:00Z</time>
      </trkpt>
      <trkpt lat="56.875572635311" lon="14.805682464241">
        <ele>177</ele>
        <time>2020-01-25T07:26:05Z</time>
      </trkpt>
      <trkpt lat="56.875633404086" lon="14.806074988618">
        <ele>177.4</ele>
        <time>2020-01-25T07:26:10Z</time>
      </trkpt>
      <trkpt lat="56.875562912307" lon="14.806382185253">
        <ele>177.6</ele>
        <time>2020-01-25T07:26:15Z</time>
      </trkpt>
      <trkpt lat="56.875517733866" lon="14.806716203968">
        <ele>177.4</ele>
        <time>2020-01-25T07:26:21Z</time>
      </trkpt>
      <trkpt lat="56.875445565707" lon="14.807055251823">
        <ele>177</ele>
        <time>2020-01-25T07:26:28Z</time>
      </trkpt>
      <trkpt lat="56.875367530218" lon="14.807267397712">
        <ele>176.4</ele>
        <time>2020-01-25T07:26:33Z</time>
      </trkpt>
      <trkpt lat="56.875319669569" lon="14.807538384539">
        <ele>175.2</ele>
        <time>2020-01-25T07:26:39Z</time>
      </trkpt>
      <trkpt lat="56.875279184992" lon="14.807806353882">
        <ele>174.2</ele>
        <time>2020-01-25T07:26:45Z</time>
      </trkpt>
      <trkpt lat="56.875264516667" lon="14.807932669115">
        <ele>173.8</ele>
        <time>2020-01-25T07:26:48Z</time>
      </trkpt>
      <trkpt lat="56.875239622424" lon="14.808164931564">
        <ele>172.8</ele>
        <time>2020-01-25T07:26:53Z</time>
      </trkpt>
      <trkpt lat="56.875220176416" lon="14.808494088777">
        <ele>171.6</ele>
        <time>2020-01-25T07:26:59Z</time>
      </trkpt>
      <trkpt lat="56.8752231939" lon="14.808850822441">
        <ele>170.8</ele>
        <time>2020-01-25T07:27:06Z</time>
      </trkpt>
      <trkpt lat="56.87522151752" lon="14.808908238456">
        <ele>170.4</ele>
        <time>2020-01-25T07:27:07Z</time>
      </trkpt>
      <trkpt lat="56.875194611621" lon="14.80922725357">
        <ele>169.4</ele>
        <time>2020-01-25T07:27:13Z</time>
      </trkpt>
      <trkpt lat="56.87525169236" lon="14.809564792683">
        <ele>168.6</ele>
        <time>2020-01-25T07:27:19Z</time>
      </trkpt>
      <trkpt lat="56.875387227683" lon="14.809785739567">
        <ele>168.4</ele>
        <time>2020-01-25T07:27:25Z</time>
      </trkpt>
      <trkpt lat="56.875411032279" lon="14.809800156435">
        <ele>168.2</ele>
        <time>2020-01-25T07:27:26Z</time>
      </trkpt>
      <trkpt lat="56.875603899798" lon="14.809914150275">
        <ele>167</ele>
        <time>2020-01-25T07:27:32Z</time>
      </trkpt>
      <trkpt lat="56.875672044645" lon="14.809934434473">
        <ele>166.8</ele>
        <time>2020-01-25T07:27:34Z</time>
      </trkpt>
      <trkpt lat="56.875856614083" lon="14.810030491047">
        <ele>166.4</ele>
        <time>2020-01-25T07:27:41Z</time>
      </trkpt>
      <trkpt lat="56.875909168596" lon="14.810054966195">
        <ele>166</ele>
        <time>2020-01-25T07:27:43Z</time>
      </trkpt>
      <trkpt lat="56.876093989491" lon="14.810136354444">
        <ele>166.4</ele>
        <time>2020-01-25T07:27:49Z</time>
      </trkpt>
      <trkpt lat="56.876291802331" lon="14.810220089625">
        <ele>166.2</ele>
        <time>2020-01-25T07:27:56Z</time>
      </trkpt>
      <trkpt lat="56.876420799772" lon="14.810270632482">
        <ele>166.4</ele>
        <time>2020-01-25T07:28:02Z</time>
      </trkpt>
      <trkpt lat="56.876566141918" lon="14.810475905213">
        <ele>167</ele>
        <time>2020-01-25T07:28:09Z</time>
      </trkpt>
      <trkpt lat="56.876584498279" lon="14.810507588795">
        <ele>167.2</ele>
        <time>2020-01-25T07:28:10Z</time>
      </trkpt>
      <trkpt lat="56.876726571484" lon="14.81074521566">
        <ele>167</ele>
        <time>2020-01-25T07:28:17Z</time>
      </trkpt>
      <trkpt lat="56.876890605267" lon="14.810903885027">
        <ele>167</ele>
        <time>2020-01-25T07:28:23Z</time>
      </trkpt>
      <trkpt lat="56.877055728697" lon="14.810998265221">
        <ele>167.4</ele>
        <time>2020-01-25T07:28:28Z</time>
      </trkpt>
      <trkpt lat="56.87724658456" lon="14.811106978464">
        <ele>168.2</ele>
        <time>2020-01-25T07:28:34Z</time>
      </trkpt>
      <trkpt lat="56.877390250326" lon="14.81129003916">
        <ele>168</ele>
        <time>2020-01-25T07:28:41Z</time>
      </trkpt>
      <trkpt lat="56.877522684346" lon="14.811555074838">
        <ele>168</ele>
        <time>2020-01-25T07:28:47Z</time>
      </trkpt>
      <trkpt lat="56.877690154708" lon="14.811754144963">
        <ele>168.8</ele>
        <time>2020-01-25T07:28:52Z</time>
      </trkpt>
      <trkpt lat="56.877679844971" lon="14.812055725725">
        <ele>168.6</ele>
        <time>2020-01-25T07:28:59Z</time>
      </trkpt>
      <trkpt lat="56.877678000953" lon="14.812415309235">
        <ele>169</ele>
        <time>2020-01-25T07:29:05Z</time>
      </trkpt>
      <trkpt lat="56.877725023412" lon="14.812787800871">
        <ele>168.6</ele>
        <time>2020-01-25T07:29:10Z</time>
      </trkpt>
      <trkpt lat="56.877819235968" lon="14.81308795671">
        <ele>168.4</ele>
        <time>2020-01-25T07:29:15Z</time>
      </trkpt>
      <trkpt lat="56.877988215072" lon="14.813274453985">
        <ele>168.4</ele>
        <time>2020-01-25T07:29:21Z</time>
      </trkpt>
      <trkpt lat="56.87816775537" lon="14.813367995989">
        <ele>168.8</ele>
        <time>2020-01-25T07:29:28Z</time>
      </trkpt>
      <trkpt lat="56.878374536843" lon="14.813394650431">
        <ele>169.2</ele>
        <time>2020-01-25T07:29:34Z</time>
      </trkpt>
      <trkpt lat="56.878574864253" lon="14.813443433089">
        <ele>169.2</ele>
        <time>2020-01-25T07:29:40Z</time>
      </trkpt>
      <trkpt lat="56.878763540822" lon="14.813496909611">
        <ele>168.8</ele>
        <time>2020-01-25T07:29:47Z</time>
      </trkpt>
      <trkpt lat="56.878964790241" lon="14.813569580684">
        <ele>168.8</ele>
        <time>2020-01-25T07:29:54Z</time>
      </trkpt>
      <trkpt lat="56.879056907322" lon="14.813706205654">
        <ele>168.6</ele>
        <time>2020-01-25T07:29:58Z</time>
      </trkpt>
      <trkpt lat="56.879090267284" lon="14.814053467771">
        <ele>168.6</ele>
        <time>2020-01-25T07:30:05Z</time>
      </trkpt>
      <trkpt lat="56.879202668563" lon="14.814200318659">
        <ele>168.2</ele>
        <time>2020-01-25T07:30:10Z</time>
      </trkpt>
      <trkpt lat="56.879363768681" lon="14.814244910367">
        <ele>168.4</ele>
        <time>2020-01-25T07:30:15Z</time>
      </trkpt>
      <trkpt lat="56.879544230988" lon="14.814289334437">
        <ele>168.6</ele>
        <time>2020-01-25T07:30:21Z</time>
      </trkpt>
      <trkpt lat="56.879726956408" lon="14.814323532589">
        <ele>168.4</ele>
        <time>2020-01-25T07:30:27Z</time>
      </trkpt>
      <trkpt lat="56.879905155602" lon="14.814409111788">
        <ele>169</ele>
        <time>2020-01-25T07:30:33Z</time>
      </trkpt>
      <trkpt lat="56.880056616535" lon="14.814648750309">
        <ele>169.2</ele>
        <time>2020-01-25T07:30:40Z</time>
      </trkpt>
      <trkpt lat="56.880085114995" lon="14.814661323159">
        <ele>169.2</ele>
        <time>2020-01-25T07:30:41Z</time>
      </trkpt>
      <trkpt lat="56.880283011654" lon="14.81468470866">
        <ele>169.6</ele>
        <time>2020-01-25T07:30:47Z</time>
      </trkpt>
      <trkpt lat="56.880470766214" lon="14.814728545997">
        <ele>169.6</ele>
        <time>2020-01-25T07:30:53Z</time>
      </trkpt>
      <trkpt lat="56.880675368393" lon="14.814776741922">
        <ele>170</ele>
        <time>2020-01-25T07:30:59Z</time>
      </trkpt>
      <trkpt lat="56.880872845957" lon="14.81483893562">
        <ele>169.8</ele>
        <time>2020-01-25T07:31:05Z</time>
      </trkpt>
      <trkpt lat="56.881061773983" lon="14.814929208683">
        <ele>169.8</ele>
        <time>2020-01-25T07:31:12Z</time>
      </trkpt>
      <trkpt lat="56.881265873248" lon="14.81497807516">
        <ele>170.2</ele>
        <time>2020-01-25T07:31:19Z</time>
      </trkpt>
      <trkpt lat="56.88133527538" lon="14.814983020481">
        <ele>170.4</ele>
        <time>2020-01-25T07:31:21Z</time>
      </trkpt>
      <trkpt lat="56.881549516744" lon="14.814996682978">
        <ele>171</ele>
        <time>2020-01-25T07:31:27Z</time>
      </trkpt>
      <trkpt lat="56.881608273863" lon="14.815008417638">
        <ele>171.4</ele>
        <time>2020-01-25T07:31:29Z</time>
      </trkpt>
      <trkpt lat="56.88179292712" lon="14.815074550829">
        <ele>171.8</ele>
        <time>2020-01-25T07:31:35Z</time>
      </trkpt>
      <trkpt lat="56.881872890446" lon="14.815112437017">
        <ele>172.4</ele>
        <time>2020-01-25T07:31:38Z</time>
      </trkpt>
      <trkpt lat="56.882045473767" lon="14.815181587692">
        <ele>173.4</ele>
        <time>2020-01-25T07:31:45Z</time>
      </trkpt>
      <trkpt lat="56.882200036003" lon="14.814969441803">
        <ele>174</ele>
        <time>2020-01-25T07:31:52Z</time>
      </trkpt>
      <trkpt lat="56.882371529677" lon="14.814975057676">
        <ele>173.2</ele>
        <time>2020-01-25T07:31:58Z</time>
      </trkpt>
      <trkpt lat="56.882551405251" lon="14.815135319604">
        <ele>173.4</ele>
        <time>2020-01-25T07:32:05Z</time>
      </trkpt>
      <trkpt lat="56.8827166125" lon="14.815318128843">
        <ele>174.6</ele>
        <time>2020-01-25T07:32:12Z</time>
      </trkpt>
      <trkpt lat="56.882874695134" lon="14.815473529269">
        <ele>175.4</ele>
        <time>2020-01-25T07:32:19Z</time>
      </trkpt>
      <trkpt lat="56.882898667368" lon="14.815492891458">
        <ele>175.6</ele>
        <time>2020-01-25T07:32:20Z</time>
      </trkpt>
      <trkpt lat="56.883080806055" lon="14.815633623559">
        <ele>176.6</ele>
        <time>2020-01-25T07:32:27Z</time>
      </trkpt>
      <trkpt lat="56.883256239222" lon="14.815760190249">
        <ele>177.4</ele>
        <time>2020-01-25T07:32:33Z</time>
      </trkpt>
      <trkpt lat="56.883334107073" lon="14.815829592381">
        <ele>177.6</ele>
        <time>2020-01-25T07:32:36Z</time>
      </trkpt>
      <trkpt lat="56.883517586864" lon="14.815996224553">
        <ele>178.6</ele>
        <time>2020-01-25T07:32:43Z</time>
      </trkpt>
      <trkpt lat="56.883542648745" lon="14.816021956986">
        <ele>178.8</ele>
        <time>2020-01-25T07:32:44Z</time>
      </trkpt>
      <trkpt lat="56.883707939813" lon="14.816162102354">
        <ele>179.6</ele>
        <time>2020-01-25T07:32:50Z</time>
      </trkpt>
      <trkpt lat="56.883806343319" lon="14.816248016829">
        <ele>179.8</ele>
        <time>2020-01-25T07:32:54Z</time>
      </trkpt>
      <trkpt lat="56.883994516974" lon="14.816346755611">
        <ele>180</ele>
        <time>2020-01-25T07:33:00Z</time>
      </trkpt>
      <trkpt lat="56.884159221309" lon="14.816504502969">
        <ele>180.6</ele>
        <time>2020-01-25T07:33:07Z</time>
      </trkpt>
      <trkpt lat="56.884231892382" lon="14.816524870986">
        <ele>180.8</ele>
        <time>2020-01-25T07:33:10Z</time>
      </trkpt>
      <trkpt lat="56.884411684137" lon="14.816606426873">
        <ele>180.8</ele>
        <time>2020-01-25T07:33:17Z</time>
      </trkpt>
      <trkpt lat="56.884589883331" lon="14.816694353004">
        <ele>181.2</ele>
        <time>2020-01-25T07:33:24Z</time>
      </trkpt>
      <trkpt lat="56.884754336209" lon="14.8167433033">
        <ele>181.8</ele>
        <time>2020-01-25T07:33:31Z</time>
      </trkpt>
      <trkpt lat="56.884951897592" lon="14.816757720168">
        <ele>182.4</ele>
        <time>2020-01-25T07:33:38Z</time>
      </trkpt>
      <trkpt lat="56.885140741799" lon="14.816782614411">
        <ele>183</ele>
        <time>2020-01-25T07:33:44Z</time>
      </trkpt>
      <trkpt lat="56.885320365916" lon="14.816884370677">
        <ele>183.6</ele>
        <time>2020-01-25T07:33:50Z</time>
      </trkpt>
      <trkpt lat="56.88551784348" lon="14.817024599864">
        <ele>183.6</ele>
        <time>2020-01-25T07:33:57Z</time>
      </trkpt>
      <trkpt lat="56.885696461769" lon="14.817157536798">
        <ele>183.8</ele>
        <time>2020-01-25T07:34:02Z</time>
      </trkpt>
      <trkpt lat="56.885839624621" lon="14.817195003891">
        <ele>184.2</ele>
        <time>2020-01-25T07:34:05Z</time>
      </trkpt>
      <trkpt lat="56.886028720285" lon="14.817346381005">
        <ele>185</ele>
        <time>2020-01-25T07:34:11Z</time>
      </trkpt>
      <trkpt lat="56.886135086596" lon="14.817440509742">
        <ele>185.4</ele>
        <time>2020-01-25T07:34:15Z</time>
      </trkpt>
      <trkpt lat="56.886289481194" lon="14.817616864918">
        <ele>185.6</ele>
        <time>2020-01-25T07:34:22Z</time>
      </trkpt>
      <trkpt lat="56.886461142506" lon="14.817804116564">
        <ele>185.6</ele>
        <time>2020-01-25T07:34:29Z</time>
      </trkpt>
      <trkpt lat="56.886616962027" lon="14.818025231086">
        <ele>185.2</ele>
        <time>2020-01-25T07:34:35Z</time>
      </trkpt>
      <trkpt lat="56.886773200643" lon="14.818274424973">
        <ele>184.8</ele>
        <time>2020-01-25T07:34:41Z</time>
      </trkpt>
      <trkpt lat="56.886926505594" lon="14.818484140111">
        <ele>184.2</ele>
        <time>2020-01-25T07:34:47Z</time>
      </trkpt>
      <trkpt lat="56.88708442059" lon="14.818681282399">
        <ele>183.8</ele>
        <time>2020-01-25T07:34:53Z</time>
      </trkpt>
      <trkpt lat="56.887193133833" lon="14.818792174936">
        <ele>183.4</ele>
        <time>2020-01-25T07:34:57Z</time>
      </trkpt>
      <trkpt lat="56.887293465176" lon="14.818919579816">
        <ele>183</ele>
        <time>2020-01-25T07:35:01Z</time>
      </trkpt>
      <trkpt lat="56.887460935538" lon="14.819107250557">
        <ele>182.2</ele>
        <time>2020-01-25T07:35:07Z</time>
      </trkpt>
      <trkpt lat="56.887581299622" lon="14.819223423691">
        <ele>182</ele>
        <time>2020-01-25T07:35:11Z</time>
      </trkpt>
      <trkpt lat="56.887737622057" lon="14.819416458848">
        <ele>181.6</ele>
        <time>2020-01-25T07:35:17Z</time>
      </trkpt>
      <trkpt lat="56.887908612817" lon="14.819628018004">
        <ele>181.2</ele>
        <time>2020-01-25T07:35:24Z</time>
      </trkpt>
      <trkpt lat="56.88807767574" lon="14.819827591043">
        <ele>181.2</ele>
        <time>2020-01-25T07:35:31Z</time>
      </trkpt>
      <trkpt lat="56.888257802771" lon="14.820016938164">
        <ele>181.6</ele>
        <time>2020-01-25T07:35:38Z</time>
      </trkpt>
      <trkpt lat="56.888423093839" lon="14.820157754084">
        <ele>182.2</ele>
        <time>2020-01-25T07:35:44Z</time>
      </trkpt>
      <trkpt lat="56.888584026319" lon="14.820295887796">
        <ele>183.2</ele>
        <time>2020-01-25T07:35:51Z</time>
      </trkpt>
      <trkpt lat="56.888759794762" lon="14.820399655718">
        <ele>184</ele>
        <time>2020-01-25T07:35:57Z</time>
      </trkpt>
      <trkpt lat="56.88878594629" lon="14.820419939916">
        <ele>184.4</ele>
        <time>2020-01-25T07:35:58Z</time>
      </trkpt>
      <trkpt lat="56.888922738898" lon="14.820628984502">
        <ele>185</ele>
        <time>2020-01-25T07:36:04Z</time>
      </trkpt>
      <trkpt lat="56.8890868565" lon="14.820811123189">
        <ele>184.8</ele>
        <time>2020-01-25T07:36:11Z</time>
      </trkpt>
      <trkpt lat="56.889164053799" lon="14.820763765454">
        <ele>184.8</ele>
        <time>2020-01-25T07:36:14Z</time>
      </trkpt>
      <trkpt lat="56.88934166626" lon="14.820916232215">
        <ele>184.8</ele>
        <time>2020-01-25T07:36:21Z</time>
      </trkpt>
      <trkpt lat="56.889507208785" lon="14.821088228803">
        <ele>184.8</ele>
        <time>2020-01-25T07:36:27Z</time>
      </trkpt>
      <trkpt lat="56.889676355527" lon="14.821265505988">
        <ele>184.2</ele>
        <time>2020-01-25T07:36:33Z</time>
      </trkpt>
      <trkpt lat="56.889819099284" lon="14.821421157871">
        <ele>184.2</ele>
        <time>2020-01-25T07:36:38Z</time>
      </trkpt>
      <trkpt lat="56.889982378696" lon="14.821616791417">
        <ele>184</ele>
        <time>2020-01-25T07:36:44Z</time>
      </trkpt>
      <trkpt lat="56.890143562633" lon="14.82180932366">
        <ele>183.6</ele>
        <time>2020-01-25T07:36:50Z</time>
      </trkpt>
      <trkpt lat="56.890317654696" lon="14.821988193406">
        <ele>183.6</ele>
        <time>2020-01-25T07:36:56Z</time>
      </trkpt>
      <trkpt lat="56.8904866338" lon="14.822146946592">
        <ele>183.6</ele>
        <time>2020-01-25T07:37:02Z</time>
      </trkpt>
      <trkpt lat="56.890645219348" lon="14.822313830221">
        <ele>183.4</ele>
        <time>2020-01-25T07:37:08Z</time>
      </trkpt>
      <trkpt lat="56.890806319466" lon="14.82247233195">
        <ele>183.6</ele>
        <time>2020-01-25T07:37:14Z</time>
      </trkpt>
      <trkpt lat="56.890975969122" lon="14.822618009372">
        <ele>183.8</ele>
        <time>2020-01-25T07:37:20Z</time>
      </trkpt>
      <trkpt lat="56.891148720081" lon="14.822779277128">
        <ele>183.4</ele>
        <time>2020-01-25T07:37:26Z</time>
      </trkpt>
      <trkpt lat="56.891316860995" lon="14.822919506315">
        <ele>183.2</ele>
        <time>2020-01-25T07:37:32Z</time>
      </trkpt>
      <trkpt lat="56.891517942776" lon="14.823004666419">
        <ele>183</ele>
        <time>2020-01-25T07:37:39Z</time>
      </trkpt>
      <trkpt lat="56.891704440051" lon="14.822995949243">
        <ele>182.8</ele>
        <time>2020-01-25T07:37:45Z</time>
      </trkpt>
      <trkpt lat="56.891889428584" lon="14.822970049172">
        <ele>182.2</ele>
        <time>2020-01-25T07:37:51Z</time>
      </trkpt>
      <trkpt lat="56.89207751842" lon="14.822942137445">
        <ele>182.4</ele>
        <time>2020-01-25T07:37:57Z</time>
      </trkpt>
      <trkpt lat="56.892279773667" lon="14.822913136071">
        <ele>182</ele>
        <time>2020-01-25T07:38:04Z</time>
      </trkpt>
      <trkpt lat="56.892486974235" lon="14.822870220743">
        <ele>182</ele>
        <time>2020-01-25T07:38:11Z</time>
      </trkpt>
      <trkpt lat="56.892667017447" lon="14.822851361468">
        <ele>181.4</ele>
        <time>2020-01-25T07:38:17Z</time>
      </trkpt>
      <trkpt lat="56.892797691268" lon="14.822844823586">
        <ele>181.2</ele>
        <time>2020-01-25T07:38:21Z</time>
      </trkpt>
      <trkpt lat="56.892992067529" lon="14.822845745595">
        <ele>181.2</ele>
        <time>2020-01-25T07:38:27Z</time>
      </trkpt>
      <trkpt lat="56.893129363051" lon="14.822843733939">
        <ele>180.8</ele>
        <time>2020-01-25T07:38:31Z</time>
      </trkpt>
      <trkpt lat="56.893309238625" lon="14.822850104183">
        <ele>180.6</ele>
        <time>2020-01-25T07:38:37Z</time>
      </trkpt>
      <trkpt lat="56.893515181908" lon="14.822800483335">
        <ele>180.6</ele>
        <time>2020-01-25T07:38:43Z</time>
      </trkpt>
      <trkpt lat="56.893724645589" lon="14.82280425519">
        <ele>180.6</ele>
        <time>2020-01-25T07:38:49Z</time>
      </trkpt>
      <trkpt lat="56.893930924148" lon="14.822851277649">
        <ele>180.4</ele>
        <time>2020-01-25T07:38:55Z</time>
      </trkpt>
      <trkpt lat="56.894106524953" lon="14.822913806623">
        <ele>180.4</ele>
        <time>2020-01-25T07:39:00Z</time>
      </trkpt>
      <trkpt lat="56.894281539025" lon="14.823072392171">
        <ele>180.4</ele>
        <time>2020-01-25T07:39:06Z</time>
      </trkpt>
      <trkpt lat="56.89441690671" lon="14.823326112284">
        <ele>180.6</ele>
        <time>2020-01-25T07:39:12Z</time>
      </trkpt>
      <trkpt lat="56.894535762052" lon="14.823627525408">
        <ele>180.6</ele>
        <time>2020-01-25T07:39:18Z</time>
      </trkpt>
      <trkpt lat="56.894649252978" lon="14.823935392595">
        <ele>180.8</ele>
        <time>2020-01-25T07:39:24Z</time>
      </trkpt>
      <trkpt lat="56.894769868519" lon="14.824235632253">
        <ele>181</ele>
        <time>2020-01-25T07:39:30Z</time>
      </trkpt>
      <trkpt lat="56.8948871313" lon="14.824533776436">
        <ele>181.2</ele>
        <time>2020-01-25T07:39:36Z</time>
      </trkpt>
      <trkpt lat="56.895000789864" lon="14.824853378283">
        <ele>181</ele>
        <time>2020-01-25T07:39:42Z</time>
      </trkpt>
      <trkpt lat="56.895122327414" lon="14.825144146394">
        <ele>180.8</ele>
        <time>2020-01-25T07:39:48Z</time>
      </trkpt>
      <trkpt lat="56.895227101164" lon="14.82542527532">
        <ele>181</ele>
        <time>2020-01-25T07:39:54Z</time>
      </trkpt>
      <trkpt lat="56.895350818008" lon="14.825693747577">
        <ele>180.8</ele>
        <time>2020-01-25T07:40:00Z</time>
      </trkpt>
      <trkpt lat="56.895484257856" lon="14.825942019455">
        <ele>180.2</ele>
        <time>2020-01-25T07:40:06Z</time>
      </trkpt>
      <trkpt lat="56.895506721348" lon="14.825982587851">
        <ele>180.2</ele>
        <time>2020-01-25T07:40:07Z</time>
      </trkpt>
      <trkpt lat="56.895655583892" lon="14.82620311564">
        <ele>180.2</ele>
        <time>2020-01-25T07:40:13Z</time>
      </trkpt>
      <trkpt lat="56.895811571051" lon="14.826384080861">
        <ele>180.2</ele>
        <time>2020-01-25T07:40:19Z</time>
      </trkpt>
      <trkpt lat="56.895976359205" lon="14.826509474085">
        <ele>180.4</ele>
        <time>2020-01-25T07:40:25Z</time>
      </trkpt>
      <trkpt lat="56.896158749349" lon="14.826569823765">
        <ele>180.8</ele>
        <time>2020-01-25T07:40:31Z</time>
      </trkpt>
      <trkpt lat="56.896343570244" lon="14.826523136582">
        <ele>180.6</ele>
        <time>2020-01-25T07:40:37Z</time>
      </trkpt>
      <trkpt lat="56.896521015067" lon="14.826423224334">
        <ele>180.4</ele>
        <time>2020-01-25T07:40:43Z</time>
      </trkpt>
      <trkpt lat="56.896673733285" lon="14.826232871385">
        <ele>180.6</ele>
        <time>2020-01-25T07:40:49Z</time>
      </trkpt>
      <trkpt lat="56.896824104571" lon="14.82602877212">
        <ele>180.8</ele>
        <time>2020-01-25T07:40:55Z</time>
      </trkpt>
      <trkpt lat="56.8969909882" lon="14.825851159659">
        <ele>181</ele>
        <time>2020-01-25T07:41:01Z</time>
      </trkpt>
      <trkpt lat="56.89718293371" lon="14.825787960133">
        <ele>181.2</ele>
        <time>2020-01-25T07:41:07Z</time>
      </trkpt>
      <trkpt lat="56.897372197012" lon="14.825852333125">
        <ele>181</ele>
        <time>2020-01-25T07:41:13Z</time>
      </trkpt>
      <trkpt lat="56.897542852496" lon="14.826026173731">
        <ele>180.6</ele>
        <time>2020-01-25T07:41:19Z</time>
      </trkpt>
      <trkpt lat="56.897716274007" lon="14.826204875839">
        <ele>180.6</ele>
        <time>2020-01-25T07:41:25Z</time>
      </trkpt>
      <trkpt lat="56.897885588387" lon="14.826373854943">
        <ele>180.6</ele>
        <time>2020-01-25T07:41:31Z</time>
      </trkpt>
      <trkpt lat="56.898069822549" lon="14.826538475459">
        <ele>181.2</ele>
        <time>2020-01-25T07:41:37Z</time>
      </trkpt>
      <trkpt lat="56.898217595446" lon="14.82669178041">
        <ele>181.2</ele>
        <time>2020-01-25T07:41:42Z</time>
      </trkpt>
      <trkpt lat="56.8983907655" lon="14.826870817794">
        <ele>181</ele>
        <time>2020-01-25T07:41:48Z</time>
      </trkpt>
      <trkpt lat="56.898559325509" lon="14.827020183252">
        <ele>180.8</ele>
        <time>2020-01-25T07:41:53Z</time>
      </trkpt>
      <trkpt lat="56.898713217193" lon="14.827197711894">
        <ele>180.4</ele>
        <time>2020-01-25T07:41:58Z</time>
      </trkpt>
      <trkpt lat="56.898873646759" lon="14.82743525494">
        <ele>180.4</ele>
        <time>2020-01-25T07:42:04Z</time>
      </trkpt>
      <trkpt lat="56.899015468507" lon="14.827645389173">
        <ele>180.6</ele>
        <time>2020-01-25T07:42:09Z</time>
      </trkpt>
      <trkpt lat="56.899137341333" lon="14.82791386143">
        <ele>180.4</ele>
        <time>2020-01-25T07:42:15Z</time>
      </trkpt>
      <trkpt lat="56.89920045704" lon="14.828269840723">
        <ele>180.4</ele>
        <time>2020-01-25T07:42:22Z</time>
      </trkpt>
      <trkpt lat="56.899273128113" lon="14.828620204143">
        <ele>180.6</ele>
        <time>2020-01-25T07:42:28Z</time>
      </trkpt>
      <trkpt lat="56.899388882152" lon="14.828922790733">
        <ele>180.8</ele>
        <time>2020-01-25T07:42:34Z</time>
      </trkpt>
      <trkpt lat="56.899563309491" lon="14.829075928046">
        <ele>180.4</ele>
        <time>2020-01-25T07:42:41Z</time>
      </trkpt>
      <trkpt lat="56.899743352703" lon="14.829189335153">
        <ele>181.2</ele>
        <time>2020-01-25T07:42:48Z</time>
      </trkpt>
      <trkpt lat="56.899937561326" lon="14.829353788031">
        <ele>181.2</ele>
        <time>2020-01-25T07:42:54Z</time>
      </trkpt>
      <trkpt lat="56.900026577104" lon="14.829454873745">
        <ele>181.2</ele>
        <time>2020-01-25T07:42:57Z</time>
      </trkpt>
      <trkpt lat="56.900187174308" lon="14.829623433754">
        <ele>181.6</ele>
        <time>2020-01-25T07:43:02Z</time>
      </trkpt>
      <trkpt lat="56.900277782647" lon="14.829697697388">
        <ele>182.4</ele>
        <time>2020-01-25T07:43:05Z</time>
      </trkpt>
      <trkpt lat="56.900411222495" lon="14.829987794947">
        <ele>182.6</ele>
        <time>2020-01-25T07:43:12Z</time>
      </trkpt>
      <trkpt lat="56.900483139197" lon="14.830328435363">
        <ele>183.4</ele>
        <time>2020-01-25T07:43:18Z</time>
      </trkpt>
      <trkpt lat="56.900555558813" lon="14.830675446023">
        <ele>183.4</ele>
        <time>2020-01-25T07:43:24Z</time>
      </trkpt>
      <trkpt lat="56.900567042016" lon="14.83072766526">
        <ele>183.6</ele>
        <time>2020-01-25T07:43:25Z</time>
      </trkpt>
      <trkpt lat="56.900660500201" lon="14.831072496626">
        <ele>183.6</ele>
        <time>2020-01-25T07:43:31Z</time>
      </trkpt>
      <trkpt lat="56.900737948957" lon="14.831374245026">
        <ele>183.8</ele>
        <time>2020-01-25T07:43:36Z</time>
      </trkpt>
      <trkpt lat="56.900818247559" lon="14.831720166039">
        <ele>183.2</ele>
        <time>2020-01-25T07:43:42Z</time>
      </trkpt>
      <trkpt lat="56.900900557817" lon="14.832078659902">
        <ele>183.4</ele>
        <time>2020-01-25T07:43:48Z</time>
      </trkpt>
      <trkpt lat="56.900966104275" lon="14.832430196788">
        <ele>183.4</ele>
        <time>2020-01-25T07:43:54Z</time>
      </trkpt>
      <trkpt lat="56.901024023204" lon="14.832785337891">
        <ele>183.4</ele>
        <time>2020-01-25T07:44:00Z</time>
      </trkpt>
      <trkpt lat="56.901101639598" lon="14.833149782903">
        <ele>183.4</ele>
        <time>2020-01-25T07:44:06Z</time>
      </trkpt>
      <trkpt lat="56.901175065042" lon="14.833474665347">
        <ele>183</ele>
        <time>2020-01-25T07:44:12Z</time>
      </trkpt>
      <trkpt lat="56.901233989799" lon="14.833791165891">
        <ele>183.8</ele>
        <time>2020-01-25T07:44:18Z</time>
      </trkpt>
      <trkpt lat="56.901284784113" lon="14.834145468804">
        <ele>183.8</ele>
        <time>2020-01-25T07:44:24Z</time>
      </trkpt>
      <trkpt lat="56.901360388851" lon="14.834444786453">
        <ele>184.4</ele>
        <time>2020-01-25T07:44:29Z</time>
      </trkpt>
      <trkpt lat="56.901437502331" lon="14.834772518743">
        <ele>184.4</ele>
        <time>2020-01-25T07:44:35Z</time>
      </trkpt>
      <trkpt lat="56.901566583591" lon="14.835084912156">
        <ele>184.2</ele>
        <time>2020-01-25T07:44:41Z</time>
      </trkpt>
      <trkpt lat="56.901688624055" lon="14.835373249516">
        <ele>183.4</ele>
        <time>2020-01-25T07:44:47Z</time>
      </trkpt>
      <trkpt lat="56.901796080013" lon="14.835707435869">
        <ele>182.6</ele>
        <time>2020-01-25T07:44:53Z</time>
      </trkpt>
      <trkpt lat="56.901813346727" lon="14.835760493296">
        <ele>182.6</ele>
        <time>2020-01-25T07:44:54Z</time>
      </trkpt>
      <trkpt lat="56.901876881529" lon="14.835975908126">
        <ele>181.6</ele>
        <time>2020-01-25T07:44:58Z</time>
      </trkpt>
      <trkpt lat="56.901959946158" lon="14.8362312208">
        <ele>180.2</ele>
        <time>2020-01-25T07:45:03Z</time>
      </trkpt>
      <trkpt lat="56.902086596667" lon="14.836526012223">
        <ele>179.2</ele>
        <time>2020-01-25T07:45:09Z</time>
      </trkpt>
      <trkpt lat="56.902233950469" lon="14.836815942144">
        <ele>178.4</ele>
        <time>2020-01-25T07:45:15Z</time>
      </trkpt>
      <trkpt lat="56.902372754733" lon="14.837068740248">
        <ele>178.2</ele>
        <time>2020-01-25T07:45:20Z</time>
      </trkpt>
      <trkpt lat="56.902393374207" lon="14.837101681115">
        <ele>178</ele>
        <time>2020-01-25T07:45:21Z</time>
      </trkpt>
      <trkpt lat="56.902416675889" lon="14.837112912861">
        <ele>178</ele>
        <time>2020-01-25T07:45:22Z</time>
      </trkpt>
      <trkpt lat="56.902497309767" lon="14.837000343944">
        <ele>178</ele>
        <time>2020-01-25T07:45:26Z</time>
      </trkpt>
      <trkpt lat="56.902552462669" lon="14.836666576686">
        <ele>178.4</ele>
        <time>2020-01-25T07:45:32Z</time>
      </trkpt>
      <trkpt lat="56.902632928909" lon="14.836349573228">
        <ele>178.2</ele>
        <time>2020-01-25T07:45:38Z</time>
      </trkpt>
      <trkpt lat="56.902763770368" lon="14.836086297749">
        <ele>178.8</ele>
        <time>2020-01-25T07:45:44Z</time>
      </trkpt>
      <trkpt lat="56.902909112514" lon="14.835848503246">
        <ele>179</ele>
        <time>2020-01-25T07:45:50Z</time>
      </trkpt>
      <trkpt lat="56.902929061436" lon="14.835799133855">
        <ele>179</ele>
        <time>2020-01-25T07:45:51Z</time>
      </trkpt>
      <trkpt lat="56.90293543168" lon="14.83574590879">
        <ele>179.2</ele>
        <time>2020-01-25T07:45:52Z</time>
      </trkpt>
      <trkpt lat="56.902986225994" lon="14.835378697751">
        <ele>180.2</ele>
        <time>2020-01-25T07:45:59Z</time>
      </trkpt>
      <trkpt lat="56.903086389699" lon="14.835037973516">
        <ele>180.8</ele>
        <time>2020-01-25T07:46:06Z</time>
      </trkpt>
      <trkpt lat="56.903135256176" lon="14.834873436819">
        <ele>181.4</ele>
        <time>2020-01-25T07:46:09Z</time>
      </trkpt>
      <trkpt lat="56.903192672191" lon="14.834552661506">
        <ele>182.4</ele>
        <time>2020-01-25T07:46:15Z</time>
      </trkpt>
      <trkpt lat="56.903200551177" lon="14.834501112821">
        <ele>182.6</ele>
        <time>2020-01-25T07:46:16Z</time>
      </trkpt>
      <trkpt lat="56.90332602822" lon="14.834209674158">
        <ele>182.8</ele>
        <time>2020-01-25T07:46:22Z</time>
      </trkpt>
      <trkpt lat="56.903451169987" lon="14.833946398679">
        <ele>182.8</ele>
        <time>2020-01-25T07:46:28Z</time>
      </trkpt>
      <trkpt lat="56.903569606234" lon="14.833690247815">
        <ele>182.4</ele>
        <time>2020-01-25T07:46:33Z</time>
      </trkpt>
      <trkpt lat="56.903749900903" lon="14.833777251937">
        <ele>182</ele>
        <time>2020-01-25T07:46:38Z</time>
      </trkpt>
      <trkpt lat="56.903932710142" lon="14.83392452192">
        <ele>181.8</ele>
        <time>2020-01-25T07:46:43Z</time>
      </trkpt>
      <trkpt lat="56.904103197988" lon="14.834116048335">
        <ele>181.6</ele>
        <time>2020-01-25T07:46:48Z</time>
      </trkpt>
      <trkpt lat="56.904201685313" lon="14.834212188728">
        <ele>181.4</ele>
        <time>2020-01-25T07:46:51Z</time>
      </trkpt>
      <trkpt lat="56.904350883133" lon="14.834438248571">
        <ele>181</ele>
        <time>2020-01-25T07:46:58Z</time>
      </trkpt>
      <trkpt lat="56.904478120375" lon="14.8346470417">
        <ele>181.2</ele>
        <time>2020-01-25T07:47:05Z</time>
      </trkpt>
    </trkseg>
  </trk>
</gpx>